Time;durP1;ratioP1;P1;durP2;ratioP2;P2;SDS_P1;SDS_P2;PMS_P1;PMS_P2;Temp;Humidity;BMP_temperature;BMP_pressure;BME280_temperature;BME280_humidity;BME280_pressure;Samples;Min_cycle;Max_cycle;Signal;HPM_P1;HPM_P2
2022/07/14 00:00:14;;;;;;;3.05;1.08;;;;;;;20.92;43.88;99992.59;4495060;31;34732;-77
2022/07/14 00:03:01;;;;;;;4.97;1.75;;;;;;;20.67;45.26;99998.53;4484230;31;35003;-77
2022/07/14 00:05:47;;;;;;;3.17;0.90;;;;;;;20.49;45.13;100002.13;4495525;31;33500;-77
2022/07/14 00:08:34;;;;;;;2.42;0.98;;;;;;;20.59;45.52;99994.00;4491340;31;34692;-77
2022/07/14 00:11:21;;;;;;;2.45;0.90;;;;;;;20.79;44.42;99996.75;4483915;31;34542;-77
2022/07/14 00:14:07;;;;;;;3.22;0.82;;;;;;;20.80;44.28;100001.12;4495561;31;35972;-77
2022/07/14 00:16:54;;;;;;;1.73;1.05;;;;;;;20.92;43.02;99998.19;4494265;31;35492;-78
2022/07/14 00:19:40;;;;;;;4.30;0.75;;;;;;;20.93;44.41;99997.00;4495060;31;33691;-79
2022/07/14 00:22:27;;;;;;;3.75;1.00;;;;;;;20.70;45.82;100001.75;4496916;31;34741;-79
2022/07/14 00:25:13;;;;;;;2.33;1.00;;;;;;;20.43;47.01;100004.41;4493509;31;34488;-79
2022/07/14 00:28:00;;;;;;;3.80;0.90;;;;;;;20.35;47.58;99997.91;4495839;31;34478;-78
2022/07/14 00:30:51;;;;;;;2.75;0.90;;;;;;;20.28;46.90;99996.97;4495562;31;34755;-79
2022/07/14 00:33:40;;;;;;;5.72;1.10;;;;;;;20.22;47.13;100002.81;4484044;31;35547;-79
2022/07/14 00:36:27;;;;;;;2.35;0.80;;;;;;;19.94;47.28;100002.25;4493425;31;34639;-79
2022/07/14 00:39:14;;;;;;;2.50;0.77;;;;;;;19.95;46.64;99993.56;4494739;31;34678;-79
2022/07/14 00:42:01;;;;;;;2.53;0.90;;;;;;;19.96;46.42;99991.56;4483687;31;33644;-79
2022/07/14 00:44:48;;;;;;;3.40;0.80;;;;;;;19.97;46.32;100002.31;4496086;31;34748;-77
2022/07/14 00:47:34;;;;;;;1.85;1.02;;;;;;;20.03;46.00;100000.03;4483529;31;35393;-77
2022/07/14 00:50:25;;;;;;;2.40;0.70;;;;;;;19.87;46.22;100004.88;4495247;31;35349;-77
2022/07/14 00:53:31;;;;;;;1.30;0.75;;;;;;;19.64;46.55;100001.97;4484092;31;34060;-78
2022/07/14 00:56:18;;;;;;;2.53;1.10;;;;;;;19.98;45.68;99992.00;4495771;31;35601;-78
2022/07/14 00:59:05;;;;;;;3.67;0.80;;;;;;;20.02;46.96;99995.66;4495543;31;34966;-78
2022/07/14 01:01:52;;;;;;;1.33;0.73;;;;;;;19.87;47.72;99996.53;4472567;31;34601;-79
2022/07/14 01:04:39;;;;;;;2.78;0.90;;;;;;;19.68;48.37;99992.56;4494932;31;34193;-79
2022/07/14 01:07:25;;;;;;;3.42;0.80;;;;;;;18.96;50.46;99997.59;4481925;31;35105;-79
2022/07/14 01:10:13;;;;;;;3.22;0.73;;;;;;;19.44;48.48;99995.53;4495244;31;34687;-79
2022/07/14 01:13:05;;;;;;;3.90;0.82;;;;;;;19.61;47.95;99999.91;4470677;31;34151;-79
2022/07/14 01:15:51;;;;;;;1.67;0.68;;;;;;;19.57;47.81;99999.81;4472900;31;33751;-79
2022/07/14 01:18:38;;;;;;;4.72;0.90;;;;;;;19.69;47.31;99999.72;4494144;31;34624;-79
2022/07/14 01:21:26;;;;;;;3.05;0.77;;;;;;;19.50;47.56;100003.25;4481068;31;34013;-79
2022/07/14 01:24:13;;;;;;;1.73;0.68;;;;;;;19.69;46.74;100002.50;4482422;31;34571;-79
2022/07/14 01:27:00;;;;;;;12.82;0.90;;;;;;;19.62;46.85;99998.75;4495039;31;35133;-79
2022/07/14 01:29:47;;;;;;;3.75;0.70;;;;;;;19.75;46.64;99997.47;4494982;31;34296;-79
2022/07/14 01:32:34;;;;;;;1.12;0.60;;;;;;;19.76;46.90;99997.12;4493723;31;37498;-79
2022/07/14 01:35:21;;;;;;;2.28;1.10;;;;;;;19.71;48.65;100002.16;4493490;31;35349;-79
2022/07/14 01:38:09;;;;;;;3.10;1.00;;;;;;;19.58;47.95;99998.69;4472567;31;35012;-78
2022/07/14 01:40:56;;;;;;;2.12;0.80;;;;;;;19.68;48.29;99995.34;4494825;31;34729;-78
2022/07/14 01:43:44;;;;;;;2.75;0.93;;;;;;;19.97;47.02;99984.81;4491878;31;34782;-79
2022/07/14 01:46:31;;;;;;;4.28;0.90;;;;;;;20.06;47.05;99984.59;4494437;31;35144;-78
2022/07/14 01:49:18;;;;;;;0.80;0.68;;;;;;;19.99;47.88;99996.41;4495556;31;35072;-78
2022/07/14 01:52:05;;;;;;;1.95;0.88;;;;;;;20.11;46.50;99987.91;4494322;31;34738;-79
2022/07/14 01:54:53;;;;;;;1.48;0.60;;;;;;;20.07;47.75;99981.47;4483885;31;34777;-78
2022/07/14 01:57:39;;;;;;;3.53;0.82;;;;;;;19.99;46.95;99988.84;4494354;31;34579;-79
2022/07/14 02:00:26;;;;;;;1.77;0.73;;;;;;;19.94;47.28;99985.56;4470290;31;33932;-79
2022/07/14 02:03:14;;;;;;;3.70;1.00;;;;;;;19.89;46.87;99995.00;4483534;31;34703;-79
2022/07/14 02:06:04;;;;;;;4.20;0.85;;;;;;;19.82;46.23;99991.28;4481272;31;34843;-79
2022/07/14 02:08:51;;;;;;;1.40;0.80;;;;;;;20.04;45.49;99981.41;4494593;31;35493;-79
2022/07/14 02:14:44;;;;;;;6.57;0.90;;;;;;;20.18;45.78;99992.81;4484248;31;34642;-79
2022/07/14 02:17:31;;;;;;;2.37;0.77;;;;;;;19.99;46.31;99986.06;4480222;31;35817;-79
2022/07/14 02:20:18;;;;;;;3.37;1.00;;;;;;;20.12;45.95;99983.97;4492433;31;34495;-79
2022/07/14 02:23:06;;;;;;;1.67;0.85;;;;;;;20.26;45.69;99982.62;4494300;31;33756;-78
2022/07/14 02:25:53;;;;;;;3.15;0.88;;;;;;;20.17;46.13;99986.41;4493597;31;34698;-79
2022/07/14 02:28:40;;;;;;;2.95;0.90;;;;;;;19.99;46.73;99985.28;4497830;31;34896;-79
2022/07/14 02:31:33;;;;;;;1.62;0.90;;;;;;;20.02;46.52;99990.09;4479591;31;35453;-78
2022/07/14 02:34:21;;;;;;;4.40;1.85;;;;;;;19.55;47.60;99993.81;4497082;31;33748;-78
2022/07/14 02:37:10;;;;;;;3.70;0.85;;;;;;;19.92;46.53;99996.22;4497601;31;34708;-79
2022/07/14 02:39:59;;;;;;;4.82;0.98;;;;;;;19.96;46.27;99997.94;4493701;31;37793;-78
2022/07/14 02:42:48;;;;;;;3.42;1.02;;;;;;;19.68;47.32;99997.31;4496710;31;34193;-79
2022/07/14 02:45:35;;;;;;;2.20;0.65;;;;;;;19.89;47.15;100003.31;4491473;31;34197;-78
2022/07/14 02:48:21;;;;;;;3.70;1.05;;;;;;;19.38;48.78;99997.84;4497656;31;35655;-78
2022/07/14 02:54:02;;;;;;;3.80;0.90;;;;;;;19.60;48.26;100003.84;4485381;31;34392;-79
2022/07/14 02:56:51;;;;;;;2.22;0.90;;;;;;;19.54;48.60;100011.66;4485395;31;34967;-78
2022/07/14 02:59:43;;;;;;;3.45;1.00;;;;;;;19.72;48.43;100001.81;4496784;31;35770;-78
2022/07/14 03:02:29;;;;;;;;;;;;;;;19.50;49.13;100013.56;4497161;31;34722;-78
2022/07/14 03:05:16;;;;;;;2.03;0.82;;;;;;;19.63;49.49;100006.72;4496168;31;34345;-79
2022/07/14 03:08:03;;;;;;;2.72;1.02;;;;;;;19.57;49.29;100007.38;4496087;31;34847;-79
2022/07/14 03:10:50;;;;;;;2.20;1.10;;;;;;;19.20;50.80;100010.47;4485393;31;35625;-78
2022/07/14 03:13:37;;;;;;;3.37;1.15;;;;;;;19.63;49.73;100017.03;4496089;31;34942;-78
2022/07/14 03:16:25;;;;;;;4.53;1.60;;;;;;;19.70;49.70;100006.91;4495463;31;34519;-78
2022/07/14 03:19:13;;;;;;;1.58;1.15;;;;;;;19.59;49.85;100011.41;4496035;31;34043;-79
2022/07/14 03:22:01;;;;;;;3.28;1.10;;;;;;;19.62;49.90;100002.31;4496971;31;34656;-79
2022/07/14 03:24:48;;;;;;;3.83;1.00;;;;;;;19.90;49.47;100010.53;4483543;31;34512;-78
2022/07/14 03:27:35;;;;;;;5.62;1.20;;;;;;;20.00;49.39;100014.69;4496748;31;34642;-78
2022/07/14 03:30:23;;;;;;;4.15;1.20;;;;;;;19.85;49.76;100007.22;4496113;31;33912;-79
2022/07/14 03:33:09;;;;;;;3.12;1.20;;;;;;;19.81;49.93;100009.09;4495492;31;34765;-78
2022/07/14 03:35:56;;;;;;;2.08;1.00;;;;;;;19.89;49.97;100008.09;4495915;31;35639;-78
2022/07/14 03:38:42;;;;;;;3.33;1.10;;;;;;;20.00;49.71;100009.91;4496587;31;35482;-78
2022/07/14 03:41:29;;;;;;;2.72;1.17;;;;;;;19.85;50.80;100008.03;4495937;31;34962;-78
2022/07/14 03:44:17;;;;;;;8.43;2.12;;;;;;;19.95;50.73;100009.41;4484639;31;34713;-79
2022/07/14 03:47:04;;;;;;;3.25;1.30;;;;;;;19.87;51.20;100016.00;4483637;31;35992;-78
2022/07/14 03:49:50;;;;;;;3.65;1.60;;;;;;;19.90;51.12;100021.66;4494977;31;34046;-79
2022/07/14 03:52:37;;;;;;;2.72;1.48;;;;;;;19.63;52.03;100017.81;4495222;31;34081;-79
2022/07/14 03:55:26;;;;;;;2.62;1.20;;;;;;;19.35;53.00;100022.72;4484273;31;34243;-79
2022/07/14 03:58:14;;;;;;;3.28;1.20;;;;;;;19.69;52.56;100026.72;4496770;31;35050;-79
2022/07/14 04:01:06;;;;;;;3.35;1.25;;;;;;;19.94;51.84;100016.94;4483348;31;35364;-79
2022/07/14 04:03:55;;;;;;;6.20;1.67;;;;;;;19.74;52.24;100018.91;4485094;31;34754;-79
2022/07/14 04:06:42;;;;;;;3.00;1.33;;;;;;;20.07;51.68;100006.50;4494108;31;34680;-79
2022/07/14 04:09:30;;;;;;;3.12;1.15;;;;;;;20.24;51.73;100012.81;4496895;31;34935;-79
2022/07/14 04:12:17;;;;;;;3.72;1.30;;;;;;;20.15;51.77;100015.78;4495593;31;34498;-79
2022/07/14 04:15:10;;;;;;;2.47;1.25;;;;;;;20.22;51.45;100015.94;4484602;31;35011;-78
2022/07/14 04:17:57;;;;;;;4.30;1.50;;;;;;;20.38;51.50;100018.66;4483593;31;34570;-83
2022/07/14 04:20:48;;;;;;;3.25;1.15;;;;;;;20.33;51.41;100010.59;4496774;31;34968;-84
2022/07/14 04:23:35;;;;;;;3.92;1.40;;;;;;;20.63;51.91;100014.38;4484359;31;36494;-85
2022/07/14 04:26:32;;;;;;;4.62;1.50;;;;;;;20.59;51.46;100013.50;4496746;31;33805;-83
2022/07/14 04:29:19;;;;;;;4.78;1.40;;;;;;;20.69;51.24;100012.09;4496734;31;34668;-84
2022/07/14 04:32:07;;;;;;;3.17;1.30;;;;;;;20.75;51.21;100010.63;4494856;31;35636;-84
2022/07/14 04:35:10;;;;;;;3.70;1.50;;;;;;;20.77;51.60;100013.81;4496246;31;36230;-82
2022/07/14 04:37:59;;;;;;;4.35;1.58;;;;;;;20.83;51.17;100005.94;4493660;31;35124;-82
2022/07/14 04:40:48;;;;;;;3.05;1.27;;;;;;;21.03;51.19;100009.47;4484437;31;34387;-83
2022/07/14 04:43:35;;;;;;;5.45;2.35;;;;;;;20.98;51.38;100005.03;4496028;31;35958;-83
2022/07/14 04:46:22;;;;;;;5.43;1.95;;;;;;;21.34;50.90;100002.81;4484236;31;34501;-82
2022/07/14 04:52:17;;;;;;;5.55;1.65;;;;;;;21.00;50.85;99999.88;4496047;31;35261;-83
2022/07/14 04:55:06;;;;;;;4.20;1.62;;;;;;;21.01;50.52;100007.06;4482982;31;36018;-82
2022/07/14 04:57:54;;;;;;;10.68;1.73;;;;;;;20.94;50.75;100003.34;4495559;31;34643;-82
2022/07/14 05:00:41;;;;;;;4.43;1.40;;;;;;;20.81;51.67;100002.75;4484292;31;34019;-81
2022/07/14 05:03:29;;;;;;;3.85;1.30;;;;;;;21.21;51.48;100012.56;4482672;31;34624;-82
2022/07/14 05:06:18;;;;;;;4.78;1.95;;;;;;;21.85;49.25;100012.72;4484506;31;35975;-82
2022/07/14 05:09:04;;;;;;;3.60;1.55;;;;;;;21.83;49.16;100013.13;4495995;31;34591;-82
2022/07/14 05:11:53;;;;;;;4.03;1.40;;;;;;;21.61;50.25;100005.63;4484359;31;33400;-82
2022/07/14 05:14:41;;;;;;;4.60;1.58;;;;;;;21.32;50.56;100011.56;4501391;31;34686;-80
2022/07/14 05:17:30;;;;;;;7.55;1.90;;;;;;;20.95;53.51;100013.34;4497515;31;36056;-80
2022/07/14 05:20:22;;;;;;;4.68;1.83;;;;;;;21.41;51.27;100018.88;4484576;31;34502;-80
2022/07/14 05:23:12;;;;;;;8.60;1.73;;;;;;;21.22;51.64;100011.38;4494263;31;34720;-77
2022/07/14 05:26:10;;;;;;;2.55;1.10;;;;;;;21.60;50.36;100015.16;4488728;31;35185;-82
2022/07/14 05:28:58;;;;;;;2.10;1.20;;;;;;;22.01;48.07;100019.72;4494800;31;34600;-83
2022/07/14 05:31:45;;;;;;;3.87;1.10;;;;;;;22.13;47.65;100024.25;4494061;31;34437;-83
2022/07/14 05:34:43;;;;;;;2.10;1.10;;;;;;;22.43;46.58;100017.88;4495670;31;33927;-83
2022/07/14 05:37:32;;;;;;;1.92;1.00;;;;;;;22.75;44.83;100014.59;4483838;31;34669;-82
2022/07/14 05:40:20;;;;;;;1.92;1.00;;;;;;;22.95;44.61;100015.19;4480394;31;35962;-83
2022/07/14 05:43:12;;;;;;;5.15;1.40;;;;;;;23.24;43.74;100010.66;4485976;31;35472;-83
2022/07/14 05:46:07;;;;;;;3.22;1.25;;;;;;;23.22;43.90;100011.03;4478060;31;34043;-82
2022/07/14 05:49:00;;;;;;;3.47;1.17;;;;;;;23.38;42.99;100005.16;4475711;31;34384;-84
2022/07/14 05:51:47;;;;;;;2.87;1.10;;;;;;;23.88;41.98;100005.50;4489498;31;34951;-84
2022/07/14 05:54:35;;;;;;;4.37;1.10;;;;;;;23.80;42.48;100006.66;4490435;31;33821;-83
2022/07/14 05:57:30;;;;;;;3.83;1.20;;;;;;;24.01;42.43;100003.94;4490662;31;33819;-83
2022/07/14 06:00:26;;;;;;;3.10;1.33;;;;;;;24.35;41.08;100000.06;4489555;31;35472;-84
2022/07/14 06:03:18;;;;;;;3.50;1.33;;;;;;;24.12;41.93;99989.19;4490908;31;35697;-81
2022/07/14 06:06:13;;;;;;;2.45;0.98;;;;;;;24.62;40.20;99987.34;4479714;31;34111;-83
2022/07/14 06:09:01;;;;;;;1.92;1.10;;;;;;;24.55;40.44;99992.94;4491064;31;34148;-81
2022/07/14 06:11:49;;;;;;;3.12;1.20;;;;;;;24.56;40.12;99991.75;4491983;31;35738;-83
2022/07/14 06:14:40;;;;;;;5.18;1.23;;;;;;;24.54;40.30;99987.75;4480938;31;34407;-83
2022/07/14 06:17:28;;;;;;;4.55;1.30;;;;;;;24.45;40.55;99990.94;4467107;31;34591;-84
2022/07/14 06:20:16;;;;;;;2.83;1.25;;;;;;;24.71;40.56;99988.97;4492365;31;35066;-83
2022/07/14 06:23:09;;;;;;;4.75;1.20;;;;;;;24.75;40.82;99987.75;4492445;31;33863;-82
2022/07/14 06:26:00;;;;;;;4.43;1.35;;;;;;;24.81;40.14;99983.34;4482032;31;35585;-81
2022/07/14 06:31:55;;;;;;;2.50;1.05;;;;;;;24.82;40.11;99989.78;4475297;31;34125;-80
2022/07/14 06:34:46;;;;;;;2.70;1.30;;;;;;;25.05;39.79;99984.56;4490538;31;36063;-80
2022/07/14 06:40:34;;;;;;;3.15;1.30;;;;;;;25.33;38.64;99980.16;4477427;31;34610;-81
2022/07/14 06:43:22;;;;;;;5.55;1.25;;;;;;;25.74;38.05;99988.09;4475058;31;34165;-81
2022/07/14 06:46:14;;;;;;;5.05;1.27;;;;;;;25.91;37.53;99976.03;4477915;31;34554;-80
2022/07/14 06:49:01;;;;;;;5.32;1.42;;;;;;;26.09;35.17;99975.12;4480462;31;35184;-82
2022/07/14 06:51:55;;;;;;;3.85;1.50;;;;;;;26.57;33.65;99983.72;4489721;31;34082;-83
2022/07/14 06:54:50;;;;;;;1.30;1.00;;;;;;;26.44;33.32;99968.50;4490679;31;35177;-83
2022/07/14 06:57:39;;;;;;;7.75;1.10;;;;;;;26.38;32.85;99979.41;4486918;31;35098;-84
2022/07/14 07:00:28;;;;;;;2.95;1.10;;;;;;;26.70;31.60;99978.44;4488132;31;34668;-84
2022/07/14 07:03:17;;;;;;;5.40;1.27;;;;;;;27.19;31.48;99978.47;4476082;31;35009;-84
2022/07/14 07:09:15;;;;;;;4.00;1.37;;;;;;;27.22;31.07;99989.66;4489917;31;34763;-81
2022/07/14 07:12:06;;;;;;;;;;;;;;;26.78;31.68;99981.97;4475996;31;35925;-84
2022/07/14 07:14:55;;;;;;;1.62;1.00;;;;;;;27.06;31.30;99980.94;4487746;31;34910;-82
2022/07/14 07:17:45;;;;;;;3.47;1.45;;;;;;;26.66;31.79;99972.00;4489536;31;33677;-79
2022/07/14 07:20:34;;;;;;;2.47;1.45;;;;;;;26.75;31.22;99977.16;4477883;31;35421;-79
2022/07/14 07:23:30;;;;;;;4.90;1.40;;;;;;;26.48;31.97;99969.31;4490283;31;33982;-79
2022/07/14 07:26:20;;;;;;;2.05;1.40;;;;;;;26.64;32.22;99978.06;4487322;31;34502;-80
2022/07/14 07:29:12;;;;;;;1.95;1.33;;;;;;;27.08;32.08;99968.06;4470604;31;33799;-80
2022/07/14 07:32:00;;;;;;;2.65;1.40;;;;;;;27.39;32.06;99965.38;4487363;31;35260;-80
2022/07/14 07:34:47;;;;;;;2.60;1.55;;;;;;;27.76;31.73;99967.38;4490334;31;35916;-80
2022/07/14 07:37:48;;;;;;;6.40;1.58;;;;;;;27.59;32.17;99957.13;4488052;31;35605;-80
2022/07/14 07:40:35;;;;;;;2.08;1.30;;;;;;;28.23;31.49;99958.34;4489739;31;34640;-79
2022/07/14 07:43:22;;;;;;;2.05;1.23;;;;;;;28.21;30.97;99953.16;4489769;31;35504;-83
2022/07/14 07:46:18;;;;;;;6.95;1.83;;;;;;;28.44;30.96;99955.28;4491569;31;34707;-83
2022/07/14 07:49:06;;;;;;;4.32;1.58;;;;;;;28.29;30.92;99945.41;4491169;31;33899;-80
2022/07/14 07:52:02;;;;;;;3.50;1.85;;;;;;;27.92;30.97;99951.94;4488693;31;34167;-84
2022/07/14 07:54:55;;;;;;;3.95;1.77;;;;;;;28.43;30.02;99952.88;4467773;31;34204;-81
2022/07/14 07:58:03;;;;;;;2.85;1.30;;;;;;;28.17;30.23;99949.59;4485814;31;35051;-78
2022/07/14 08:00:50;;;;;;;2.25;1.42;;;;;;;28.45;29.73;99951.22;4486882;31;35401;-79
2022/07/14 08:03:36;;;;;;;2.72;1.60;;;;;;;28.74;29.99;99949.97;4485681;31;33600;-80
2022/07/14 08:06:30;;;;;;;5.20;1.45;;;;;;;28.63;29.58;99945.31;4476987;31;35494;-82
2022/07/14 08:09:25;;;;;;;3.83;2.00;;;;;;;28.93;30.05;99935.16;4477750;31;34871;-85
2022/07/14 08:12:13;;;;;;;2.62;1.50;;;;;;;29.63;27.99;99933.50;4487668;31;34418;-84
2022/07/14 08:15:07;;;;;;;2.90;1.42;;;;;;;29.70;28.12;99936.19;4475488;31;34056;-84
2022/07/14 08:18:00;;;;;;;1.83;1.37;;;;;;;29.50;27.86;99936.94;4473602;31;34543;-83
2022/07/14 08:20:49;;;;;;;4.28;1.40;;;;;;;29.53;26.65;99924.78;4484642;31;34816;-83
2022/07/14 08:23:37;;;;;;;2.90;1.40;;;;;;;29.59;27.66;99931.53;4477460;31;35093;-83
2022/07/14 08:29:32;;;;;;;5.93;1.45;;;;;;;29.69;26.91;99926.16;4485605;31;34222;-84
2022/07/14 08:32:47;;;;;;;3.55;1.40;;;;;;;29.50;26.96;99928.47;4474627;31;34959;-86
2022/07/14 08:35:35;;;;;;;4.20;1.40;;;;;;;30.08;26.16;99928.09;4475821;31;34121;-87
2022/07/14 08:38:21;;;;;;;6.68;1.30;;;;;;;30.32;25.81;99914.69;4484282;31;34080;-86
2022/07/14 08:41:10;;;;;;;3.33;1.20;;;;;;;29.81;26.27;99914.19;4485945;31;34658;-86
2022/07/14 08:43:57;;;;;;;3.22;1.45;;;;;;;30.32;25.33;99920.34;4482874;31;35047;-83
2022/07/14 08:49:43;;;;;;;1.00;0.80;;;;;;;30.43;25.18;99918.06;4467027;31;34153;-84
2022/07/14 08:52:52;;;;;;;2.17;1.02;;;;;;;30.39;23.11;99911.69;4486987;31;34723;-82
2022/07/14 08:55:41;;;;;;;2.00;1.17;;;;;;;30.23;24.02;99906.81;4465234;31;35167;-82
2022/07/14 08:58:28;;;;;;;4.97;1.10;;;;;;;30.87;24.17;99917.81;4485677;31;34611;-84
2022/07/14 09:01:16;;;;;;;2.60;0.95;;;;;;;30.88;22.97;99906.06;4487228;31;35065;-83
2022/07/14 09:04:04;;;;;;;5.87;1.20;;;;;;;31.31;22.67;99904.91;4484662;31;34560;-84
2022/07/14 09:06:54;;;;;;;1.75;1.00;;;;;;;31.04;23.38;99899.56;4475082;31;36464;-88
2022/07/14 09:09:59;;;;;;;4.60;1.30;;;;;;;31.13;22.69;99898.94;4486957;31;34416;-86
2022/07/14 09:12:48;;;;;;;1.92;1.17;;;;;;;30.98;22.92;99903.41;4475007;31;34908;-83
2022/07/14 09:15:47;;;;;;;4.80;1.35;;;;;;;31.67;23.28;99895.41;4485799;31;34804;-87
2022/07/14 09:18:42;;;;;;;;;;;;;;;32.09;22.70;99878.37;4479015;31;35745;-87
2022/07/14 09:21:31;;;;;;;4.25;1.20;;;;;;;32.20;22.48;99876.00;4478026;31;35597;-82
2022/07/14 09:24:20;;;;;;;3.42;1.00;;;;;;;31.78;22.37;99884.56;4476219;31;33644;-82
2022/07/14 09:27:20;;;;;;;3.47;1.10;;;;;;;32.10;23.33;99873.50;4490509;31;34239;-84
2022/07/14 09:30:10;;;;;;;2.33;1.05;;;;;;;32.47;22.87;99877.59;4475663;31;35722;-83
2022/07/14 09:33:04;;;;;;;3.17;1.10;;;;;;;32.41;22.67;99870.87;4476610;31;35472;-83
2022/07/14 09:35:53;;;;;;;2.45;1.17;;;;;;;32.60;22.64;99872.72;4489798;31;33614;-82
2022/07/14 09:38:45;;;;;;;1.20;1.10;;;;;;;32.52;22.62;99860.00;4490456;31;33624;-78
2022/07/14 09:41:52;;;;;;;2.03;1.20;;;;;;;31.60;22.17;99878.66;4488477;31;34125;-85
2022/07/14 09:44:39;;;;;;;2.65;1.20;;;;;;;32.00;23.04;99876.22;4489843;31;33797;-84
2022/07/14 09:47:54;;;;;;;3.17;1.27;;;;;;;31.65;22.35;99869.59;4488838;31;34183;-84
2022/07/14 09:50:47;;;;;;;1.10;0.90;;;;;;;32.15;21.58;99859.56;4478381;31;34159;-85
2022/07/14 09:53:36;;;;;;;3.50;1.08;;;;;;;32.33;21.21;99863.87;4477180;31;34708;-84
2022/07/14 09:56:28;;;;;;;2.50;1.00;;;;;;;31.84;21.27;99861.34;4477989;31;34189;-81
2022/07/14 09:59:17;;;;;;;2.55;1.20;;;;;;;32.43;21.31;99859.91;4490445;31;33967;-83
2022/07/14 10:02:05;;;;;;;3.42;1.50;;;;;;;32.71;21.65;99861.00;4488491;31;33957;-83
2022/07/14 10:05:01;;;;;;;2.65;1.17;;;;;;;32.62;21.97;99850.38;4486185;31;34936;-85
2022/07/14 10:07:50;;;;;;;1.70;1.10;;;;;;;32.57;21.01;99850.16;4479832;31;34568;-84
2022/07/14 10:10:42;;;;;;;3.90;1.17;;;;;;;32.61;21.12;99848.75;4488714;31;33466;-84
2022/07/14 10:13:31;;;;;;;3.12;1.15;;;;;;;32.50;20.97;99851.16;4490033;31;34200;-83
2022/07/14 10:16:19;;;;;;;1.92;1.12;;;;;;;32.07;21.19;99858.19;4487245;31;34550;-86
2022/07/14 10:19:09;;;;;;;1.60;1.00;;;;;;;32.72;21.49;99851.22;4479548;31;34185;-84
2022/07/14 10:22:03;;;;;;;1.50;1.10;;;;;;;32.43;20.62;99829.50;4488693;31;34079;-83
2022/07/14 10:24:52;;;;;;;2.75;1.00;;;;;;;33.13;18.99;99830.34;4477450;31;36171;-85
2022/07/14 10:27:47;;;;;;;1.50;1.10;;;;;;;33.57;19.16;99826.72;4488376;31;34816;-85
2022/07/14 10:30:41;;;;;;;3.25;1.10;;;;;;;33.23;20.08;99828.34;4479556;31;34935;-84
2022/07/14 10:33:52;;;;;;;3.50;1.15;;;;;;;33.53;19.29;99818.34;4476193;31;33642;-81
2022/07/14 10:37:15;;;;;;;1.55;1.00;;;;;;;33.78;20.11;99819.38;4475893;31;33941;-81
2022/07/14 10:40:29;;;;;;;2.40;1.25;;;;;;;33.98;20.05;99816.16;4475681;31;35819;-81
2022/07/14 10:43:24;;;;;;;2.40;0.95;;;;;;;33.39;19.15;99818.84;4475670;31;34753;-81
2022/07/14 10:46:33;;;;;;;2.53;1.30;;;;;;;34.33;18.22;99807.47;4475832;31;34714;-82
2022/07/14 10:49:21;;;;;;;1.95;1.15;;;;;;;33.34;19.68;99808.88;4489325;31;35715;-82
2022/07/14 10:52:25;;;;;;;3.45;1.30;;;;;;;33.19;19.31;99810.69;4491429;31;34136;-82
2022/07/14 10:55:24;;;;;;;3.75;1.12;;;;;;;33.41;19.29;99798.50;4475745;31;34615;-82
2022/07/14 10:58:23;;;;;;;2.65;1.10;;;;;;;33.87;19.81;99784.53;4490373;31;33743;-81
2022/07/14 11:01:15;;;;;;;2.28;0.90;;;;;;;33.77;18.94;99787.34;4491565;31;34623;-83
2022/07/14 11:04:09;;;;;;;7.40;1.48;;;;;;;33.46;18.92;99801.53;4490389;31;34938;-84
2022/07/14 11:07:35;;;;;;;3.35;1.33;;;;;;;32.98;19.12;99789.50;4491362;31;34221;-82
2022/07/14 11:10:27;;;;;;;1.35;1.25;;;;;;;34.37;18.30;99785.34;4493461;31;34967;-81
2022/07/14 11:13:20;;;;;;;2.78;1.23;;;;;;;34.10;18.77;99780.37;4491251;31;35470;-80
2022/07/14 11:16:09;;;;;;;3.50;1.20;;;;;;;34.41;17.62;99781.09;4475886;31;34912;-81
2022/07/14 11:19:22;;;;;;;3.40;1.00;;;;;;;34.90;18.33;99756.63;4467732;31;36289;-81
2022/07/14 11:22:20;;;;;;;2.97;1.33;;;;;;;33.59;18.86;99768.19;4485058;31;34133;-80
2022/07/14 11:25:32;;;;;;;2.35;1.10;;;;;;;33.19;19.39;99768.09;4485942;31;34728;-79
2022/07/14 11:28:49;;;;;;;4.22;1.10;;;;;;;33.68;18.56;99766.63;4467687;31;34429;-81
2022/07/14 11:31:50;;;;;;;2.83;1.12;;;;;;;34.18;17.75;99775.97;4479766;31;34166;-80
2022/07/14 11:38:00;;;;;;;1.42;1.05;;;;;;;35.00;18.03;99771.63;4485719;31;37292;-82
2022/07/14 11:40:54;;;;;;;1.98;0.80;;;;;;;34.66;17.58;99750.78;4488337;31;35727;-81
2022/07/14 11:43:50;;;;;;;4.07;1.23;;;;;;;34.70;17.52;99748.59;4484992;31;35104;-79
2022/07/14 11:47:00;;;;;;;3.42;1.00;;;;;;;33.52;18.60;99754.25;4476702;31;33850;-80
2022/07/14 11:52:58;;;;;;;4.28;0.98;;;;;;;33.65;18.81;99744.84;4481010;31;33773;-82
2022/07/14 11:55:47;;;;;;;1.15;1.05;;;;;;;34.31;17.67;99744.59;4486649;31;34584;-79
2022/07/14 11:58:35;;;;;;;1.92;0.80;;;;;;;34.22;17.77;99742.50;4473371;31;33762;-80
2022/07/14 12:01:22;;;;;;;5.37;1.12;;;;;;;33.17;18.90;99741.41;4482108;31;34741;-79
2022/07/14 12:04:19;;;;;;;4.95;0.85;;;;;;;33.76;17.90;99734.63;4482587;31;35020;-80
2022/07/14 12:07:07;;;;;;;1.50;0.95;;;;;;;33.96;18.09;99736.28;4486002;31;34169;-82
2022/07/14 12:10:11;;;;;;;1.85;1.10;;;;;;;34.97;18.43;99729.91;4489938;31;34076;-81
2022/07/14 12:13:03;;;;;;;2.15;1.00;;;;;;;35.09;17.87;99729.75;4483639;31;34551;-81
2022/07/14 12:15:59;;;;;;;3.97;1.08;;;;;;;34.37;17.85;99732.09;4484946;31;34981;-82
2022/07/14 12:18:48;;;;;;;2.25;0.95;;;;;;;34.95;16.66;99718.97;4484595;31;35040;-81
2022/07/14 12:21:37;;;;;;;1.90;1.00;;;;;;;34.86;17.40;99727.53;4468547;31;34313;-81
2022/07/14 12:24:25;;;;;;;1.40;1.10;;;;;;;35.22;17.22;99715.31;4480413;31;35124;-80
2022/07/14 12:27:15;;;;;;;1.83;0.90;;;;;;;35.26;17.02;99718.75;4490073;31;36090;-79
2022/07/14 12:30:04;;;;;;;3.85;1.10;;;;;;;35.24;16.78;99718.47;4483917;31;35508;-83
2022/07/14 12:32:54;;;;;;;1.58;0.82;;;;;;;35.66;16.45;99719.75;4486859;31;34187;-82
2022/07/14 12:35:44;;;;;;;3.90;0.90;;;;;;;35.58;15.95;99703.03;4477477;31;34728;-83
2022/07/14 12:38:36;;;;;;;1.83;0.88;;;;;;;34.06;16.74;99720.03;4482725;31;34465;-82
2022/07/14 12:41:26;;;;;;;1.12;0.88;;;;;;;34.85;16.94;99711.72;4476663;31;33609;-81
2022/07/14 12:44:13;;;;;;;1.40;0.90;;;;;;;35.39;15.57;99695.78;4465478;31;33732;-81
2022/07/14 12:47:12;;;;;;;1.00;0.80;;;;;;;35.03;15.76;99699.50;4493577;31;34611;-82
2022/07/14 12:50:00;;;;;;;1.30;0.80;;;;;;;35.31;15.82;99688.84;4474836;31;34899;-79
2022/07/14 12:52:55;;;;;;;2.40;0.90;;;;;;;35.24;15.88;99684.31;4484854;31;35208;-79
2022/07/14 12:55:46;;;;;;;4.07;0.90;;;;;;;35.65;15.49;99681.16;4484208;31;34101;-79
2022/07/14 12:58:43;;;;;;;1.73;0.90;;;;;;;35.13;15.37;99679.13;4477141;31;33863;-79
2022/07/14 13:01:33;;;;;;;4.12;1.00;;;;;;;35.37;15.41;99682.03;4474625;31;35536;-79
2022/07/14 13:04:43;;;;;;;1.92;1.12;;;;;;;35.47;15.94;99670.59;4476853;31;34499;-78
2022/07/14 13:07:40;;;;;;;1.40;1.05;;;;;;;35.37;16.00;99667.78;4474052;31;33939;-79
2022/07/14 13:10:28;;;;;;;;;;;;;;;35.67;15.75;99664.34;4484602;31;34722;-85
2022/07/14 13:13:49;;;;;;;0.85;0.70;;;;;;;35.91;14.83;99661.50;4470283;31;264911;-85
2022/07/14 13:16:43;;;;;;;1.35;0.80;;;;;;;35.35;14.63;99666.72;4475035;31;34051;-84
2022/07/14 13:19:35;;;;;;;1.52;0.70;;;;;;;35.46;15.03;99660.47;4477059;31;34175;-83
2022/07/14 13:22:24;;;;;;;1.67;0.90;;;;;;;35.79;14.83;99677.56;4486625;31;34684;-83
2022/07/14 13:25:14;;;;;;;1.30;0.80;;;;;;;34.81;15.87;99674.91;4486694;31;34864;-86
2022/07/14 13:28:10;;;;;;;3.90;1.20;;;;;;;35.49;15.44;99666.00;4476751;31;34168;-85
2022/07/14 13:31:13;;;;;;;1.27;0.90;;;;;;;36.38;14.72;99659.91;4467746;31;34769;-84
2022/07/14 13:34:03;;;;;;;1.52;1.27;;;;;;;36.19;15.39;99654.34;4480169;31;34642;-84
2022/07/14 13:36:56;;;;;;;2.50;1.10;;;;;;;36.32;14.96;99661.84;4477373;31;34730;-85
2022/07/14 13:39:44;;;;;;;2.42;1.00;;;;;;;35.69;15.45;99662.59;4487454;31;35143;-85
2022/07/14 13:42:35;;;;;;;1.90;0.95;;;;;;;35.92;15.50;99663.88;4480885;31;33820;-83
2022/07/14 13:45:27;;;;;;;1.57;0.97;;;;;;;35.59;15.44;99644.75;4480822;31;34583;-85
2022/07/14 13:48:28;;;;;;;3.75;1.15;;;;;;;36.36;15.27;99639.66;4488813;31;35921;-83
2022/07/14 13:54:24;;;;;;;3.20;1.00;;;;;;;35.75;15.63;99626.47;4485159;31;33759;-84
2022/07/14 13:57:13;;;;;;;1.40;0.90;;;;;;;35.99;15.82;99631.34;4487772;31;35526;-84